Latest Weather Observations for Ballina

IDN60801

Issued at 4:05 pm EST Saturday 2 August 2014 (issued every 30 minutes, with the page automatically refreshed every 10 minutes)

About weather observations | Map of weather stations | Latest weather observations for NSW | Other Formats
Station Details ID: 058198 Name: BALLINA AIRPORT AWS Lat: -28.84 Lon: 153.56 Height: 1.3 m
Data from the previous 72 hours. | See also: Recent months at Ballina
Date/Time
EST
Temp
°C
App
Temp
°C
Dew
Point
Rel
Hum
%
Delta-T
°C
Wind Press
QNH
hPa
Press
MSL
hPa
Rain
since 9 am
mm
Dir
 
Spd
km/h
Gust
km/h
Spd
kts
Gust
kts
02/04:00pm 16.0 10.8 3.4 43 5.7 S 20 28 11 15 1024.2 1024.2 0.0
02/03:30pm 16.3 10.7 3.7 43 5.8 S 22 30 12 16 1023.9 - 0.0
02/03:00pm 16.6 10.7 1.9 37 6.5 S 22 28 12 15 1023.7 1023.7 0.0
02/02:30pm 16.8 11.0 2.4 38 6.5 S 22 30 12 16 1023.5 - 0.0
02/02:00pm 16.7 11.2 1.6 36 6.7 S 20 28 11 15 1023.4 1023.4 0.0
02/01:30pm 16.7 11.0 0.8 34 6.9 SSE 20 28 11 15 1023.3 - 0.0
02/01:00pm 16.7 10.5 -0.5 31 7.3 S 22 30 12 16 1023.4 1023.4 0.0
02/12:30pm 16.9 10.5 1.0 34 7.0 SSE 24 32 13 17 1023.6 - 0.0
02/12:00pm 16.8 10.3 0.0 32 7.2 S 24 37 13 20 1023.7 1023.7 0.0
02/11:30am 16.3 9.5 -1.7 29 7.4 SSW 24 33 13 18 1023.8 - 0.0
02/11:00am 16.3 10.8 -2.2 28 7.5 SSW 17 24 9 13 1023.9 1023.9 0.0
02/10:30am 15.4 8.0 -3.5 27 7.4 SW 26 37 14 20 1024.0 - 0.0
02/10:00am 15.4 9.3 -2.1 30 7.0 WSW 20 28 11 15 1024.0 1024.0 0.0
02/09:30am 14.8 8.3 -2.6 30 6.9 WSW 22 28 12 15 1023.7 - 0.0
02/09:00am 14.0 6.7 -2.8 31 6.6 WSW 26 35 14 19 1023.3 1023.3 0.0
02/08:30am 13.5 7.5 -1.6 35 6.1 WSW 20 28 11 15 1023.1 - 0.0
02/08:00am 12.7 6.6 -2.0 36 5.8 WSW 20 28 11 15 1022.7 1022.7 0.0
02/07:30am 11.4 5.3 -2.0 39 5.2 W 20 28 11 15 1022.2 - 0.0
02/07:00am 10.7 6.7 -2.3 40 5.0 NE 9 13 5 7 1021.8 1021.8 0.0
02/06:30am 11.0 4.8 -2.8 38 5.2 WSW 20 26 11 14 1021.3 - 0.0
02/06:00am 11.7 4.8 -2.9 36 5.6 WSW 24 37 13 20 1020.8 1020.8 0.0
02/05:30am 11.4 6.6 -2.8 37 5.4 WSW 13 20 7 11 1020.5 - 0.0
02/05:00am 11.7 6.5 -2.5 37 5.5 SW 15 22 8 12 1020.2 1020.2 0.0
02/04:30am 12.3 7.1 -2.7 35 5.8 SW 15 24 8 13 1019.8 - 0.0
02/04:00am 12.7 7.6 -2.3 35 5.9 SW 15 28 8 15 1019.5 1019.5 0.0
02/03:30am 13.1 9.2 1.1 44 5.1 SW 11 17 6 9 1019.1 - 0.0
02/03:00am 12.5 9.8 3.5 54 4.0 SE 7 11 4 6 1018.7 1018.7 0.0
02/02:30am 14.0 10.5 3.5 49 4.7 SE 11 17 6 9 1018.2 - 0.0
02/02:00am 14.7 9.5 3.5 47 5.1 WSW 20 28 11 15 1017.5 1017.5 0.0
02/01:30am 14.8 9.8 3.6 47 5.1 WSW 19 24 10 13 1017.3 - 0.0
02/01:00am 15.9 11.2 3.0 42 5.8 WSW 17 22 9 12 1017.1 1017.1 0.0
02/12:30am 15.2 10.2 3.4 45 5.4 W 19 22 10 12 1016.8 - 0.0
02/12:00am 16.9 11.2 2.9 39 6.4 WSW 22 28 12 15 1016.4 1016.4 0.0
 
Date/Time
EST
Temp
°C
App
Temp
°C
Dew
Point
Rel
Hum
%
Delta-T
°C
Wind Press
QNH
hPa
Press
MSL
hPa
Rain
since 9 am
mm
Dir
 
Spd
km/h
Gust
km/h
Spd
kts
Gust
kts
01/11:30pm 16.2 11.0 3.3 42 5.9 WSW 20 26 11 14 1016.2 - 0.0
01/11:00pm 14.3 9.4 4.9 53 4.4 W 20 24 11 13 1015.9 1015.9 0.0
01/10:30pm 12.6 9.1 5.3 61 3.4 W 13 19 7 10 1015.7 - 0.0
01/10:00pm 11.1 9.6 9.0 87 1.0 W 7 9 4 5 1015.3 1015.3 0.0
01/09:30pm 10.8 8.9 9.2 90 0.8 WSW 9 13 5 7 1014.6 - 0.0
01/09:01pm 12.4 11.3 11.8 96 0.3 WNW 9 11 5 6 1014.0 - 0.0
01/09:00pm 12.3 11.1 11.7 96 0.3 WNW 9 11 5 6 1014.0 1014.0 0.0
01/08:30pm 13.7 14.6 12.9 95 0.4 CALM 0 2 0 1 1013.5 - 0.0
01/08:00pm 13.9 14.3 12.6 92 0.7 N 2 7 1 4 1013.0 1013.0 0.0
01/07:46pm 14.5 15.4 12.9 90 0.9 CALM 0 0 0 0 1012.7 - 0.0
01/07:30pm 15.5 16.5 13.3 87 1.2 CALM 0 0 0 0 1012.5 - 0.0
01/07:00pm 17.3 17.9 15.3 88 1.2 N 6 9 3 5 1012.1 1012.1 0.0
01/06:30pm 18.4 18.5 15.5 83 1.7 N 9 13 5 7 1011.6 - 0.0
01/06:00pm 19.7 18.2 16.2 80 2.1 NNE 19 22 10 12 1010.9 1010.9 0.0
01/05:30pm 20.1 18.4 15.7 76 2.6 N 19 26 10 14 1010.5 - 0.0
01/05:00pm 20.9 18.4 15.2 70 3.4 N 22 37 12 20 1010.0 1010.0 0.0
01/04:30pm 22.0 17.9 13.9 60 4.7 N 28 39 15 21 1009.8 - 0.0
01/04:00pm 23.7 19.6 12.7 50 6.3 N 26 39 14 21 1009.4 1009.4 0.0
01/03:30pm 26.1 22.2 8.6 33 9.5 NNW 19 32 10 17 1009.2 - 0.0
01/03:00pm 26.7 21.7 8.2 31 10.0 NW 24 33 13 18 1009.4 1009.4 0.0
01/02:30pm 26.5 20.6 7.5 30 10.1 NNW 28 43 15 23 1009.6 - 0.0
01/02:00pm 26.7 20.8 7.7 30 10.2 NW 28 39 15 21 1009.8 1009.8 0.0
01/01:30pm 26.9 21.9 6.3 27 10.8 NW 22 33 12 18 1010.1 - 0.0
01/01:00pm 25.8 23.1 13.6 47 7.2 NNW 20 32 11 17 1010.7 1010.7 0.0
01/12:30pm 25.9 24.1 13.4 46 7.3 N 15 22 8 12 1011.2 - 0.0
01/12:00pm 26.0 22.5 8.9 34 9.3 N 17 24 9 13 1011.6 1011.6 0.0
01/11:30am 25.9 23.2 10.5 38 8.6 NNW 15 24 8 13 1012.1 - 0.0
01/11:00am 25.2 21.5 9.5 37 8.6 NNW 19 32 10 17 1012.7 1012.7 0.0
01/10:30am 25.3 22.4 11.1 41 8.0 NNW 17 26 9 14 1013.2 - 0.0
01/10:00am 24.0 20.6 11.3 45 7.1 N 20 28 11 15 1013.5 1013.5 0.0
01/09:30am 23.2 20.5 11.6 48 6.5 NNW 17 24 9 13 1013.8 - 0.0
01/09:00am 21.7 20.0 12.3 55 5.3 N 13 17 7 9 1013.9 1013.9 0.0
01/08:30am 19.8 18.1 12.6 63 4.0 N 13 17 7 9 1014.0 - 0.0
01/08:00am 18.0 16.2 12.2 69 3.2 N 13 17 7 9 1014.2 1014.2 0.0
01/07:30am 16.3 14.4 11.9 75 2.4 N 13 17 7 9 1014.2 - 0.0
01/07:00am 15.6 13.1 11.2 75 2.4 N 15 19 8 10 1014.1 1014.1 0.0
01/06:30am 15.0 12.9 11.0 77 2.1 N 13 19 7 10 1014.1 - 0.0
01/06:00am 15.1 12.2 11.1 77 2.1 N 17 20 9 11 1014.0 1014.0 0.0
01/05:30am 15.2 13.1 11.2 77 2.1 N 13 17 7 9 1014.2 - 0.0
01/05:00am 15.4 12.9 11.2 76 2.2 N 15 19 8 10 1014.1 1014.1 0.0
01/04:30am 15.9 13.1 11.5 75 2.4 N 17 22 9 12 1014.0 - 0.0
01/04:00am 15.9 13.1 11.5 75 2.4 N 17 24 9 13 1014.0 1014.0 0.0
01/03:30am 16.2 13.2 11.8 75 2.4 N 19 24 10 13 1014.0 - 0.0
01/03:00am 16.0 13.3 11.6 75 2.4 N 17 20 9 11 1014.2 1014.2 0.0
01/02:30am 16.5 13.4 11.6 73 2.7 N 19 22 10 12 1014.6 - 0.0
01/02:00am 16.3 14.0 11.7 74 2.5 N 15 19 8 10 1014.8 1014.8 0.0
01/01:30am 17.0 14.7 11.9 72 2.8 N 15 20 8 11 1015.1 - 0.0
01/01:00am 17.4 14.3 11.7 69 3.1 N 19 24 10 13 1015.2 1015.2 0.0
01/12:30am 17.4 14.2 11.4 68 3.3 N 19 24 10 13 1015.6 - 0.0
01/12:00am 17.7 14.4 11.0 65 3.6 N 19 26 10 14 1015.9 1015.9 0.0
 
Date/Time
EST
Temp
°C
App
Temp
°C
Dew
Point
Rel
Hum
%
Delta-T
°C
Wind Press
QNH
hPa
Press
MSL
hPa
Rain
since 9 am
mm
Dir
 
Spd
km/h
Gust
km/h
Spd
kts
Gust
kts
31/11:30pm 17.6 14.6 10.7 64 3.7 N 17 24 9 13 1016.0 - 0.0
31/11:00pm 17.7 14.2 10.1 61 4.0 N 19 28 10 15 1016.3 1016.3 0.0
31/10:30pm 18.0 14.1 9.6 58 4.4 N 20 30 11 16 1016.3 - 0.0
31/10:00pm 17.7 14.1 9.8 60 4.2 N 19 26 10 14 1016.4 1016.4 0.0
31/09:30pm 17.2 14.3 11.0 67 3.3 N 17 24 9 13 1016.4 - 0.0
31/09:00pm 17.4 15.0 11.4 68 3.3 N 15 20 8 11 1016.5 1016.5 0.0
31/08:30pm 17.5 14.8 11.8 69 3.1 N 17 24 9 13 1016.3 - 0.0
31/08:00pm 17.3 15.5 12.0 71 2.9 N 13 19 7 10 1016.0 1016.0 0.0
31/07:30pm 17.7 14.8 11.0 65 3.6 N 17 22 9 12 1015.7 - 0.0
31/07:00pm 17.8 14.9 10.9 64 3.7 N 17 24 9 13 1015.3 1015.3 0.0
31/06:30pm 18.3 15.1 11.1 63 3.9 N 19 28 10 15 1015.3 - 0.0
31/06:00pm 17.8 15.0 11.4 66 3.5 N 17 22 9 12 1015.1 1015.1 0.0
31/05:30pm 18.4 15.5 12.2 67 3.4 N 19 26 10 14 1014.8 - 0.0
31/05:00pm 19.1 16.5 12.1 64 3.9 NNE 17 28 9 15 1014.7 1014.7 0.0
31/04:30pm 20.3 17.1 11.2 56 5.0 N 19 32 10 17 1014.6 - 0.0
31/04:00pm 21.4 18.1 10.9 51 5.8 NNE 19 28 10 15 1014.5 1014.5 0.0
31/03:30pm 22.3 18.3 9.1 43 7.1 NNE 20 28 11 15 1014.6 - 0.0
31/03:00pm 23.0 18.5 7.1 36 8.2 NNE 20 30 11 16 1014.8 1014.8 0.0
31/02:30pm 23.5 19.8 9.5 41 7.6 NE 19 26 10 14 1014.9 - 0.0
31/02:00pm 23.0 19.6 11.4 48 6.5 NE 20 24 11 13 1015.2 1015.2 0.0
31/01:30pm 23.0 19.8 11.4 48 6.5 ENE 19 22 10 12 1015.7 - 0.0
31/01:00pm 22.8 21.2 11.5 49 6.3 E 11 15 6 8 1016.5 1016.5 0.0
31/12:30pm 21.6 19.9 9.8 47 6.4 ENE 9 13 5 7 1017.3 - 0.0
31/12:00pm 21.3 18.8 11.1 52 5.6 ENE 15 19 8 10 1018.1 1018.1 0.0
31/11:30am 21.5 19.5 12.6 57 5.0 E 15 19 8 10 1018.6 - 0.0
31/11:00am 22.2 20.8 11.0 49 6.2 E 9 15 5 8 1019.3 1019.3 0.0
31/10:30am 22.1 21.0 7.1 38 7.7 N 2 7 1 4 1019.9 - 0.0
31/10:00am 19.9 19.2 8.6 48 5.9 WNW 2 6 1 3 1020.3 1020.3 0.0
31/09:30am 18.5 18.7 10.6 60 4.2 CALM 0 6 0 3 1020.5 - 0.0
31/09:00am 15.7 15.9 10.7 72 2.6 CALM 0 6 0 3 1020.6 1020.6 0.0
31/08:30am 12.2 11.7 9.4 83 1.4 NNW 2 6 1 3 1020.5 - 0.0
31/08:00am 9.0 8.5 7.8 92 0.6 CALM 0 0 0 0 1020.4 1020.4 0.0
31/07:30am 6.9 5.7 6.3 96 0.3 N 2 6 1 3 1020.3 - 0.0
31/07:00am 5.4 4.3 5.0 97 0.2 CALM 0 0 0 0 1020.1 1020.1 0.0
31/06:39am 5.1 2.8 4.7 97 0.2 W 6 6 3 3 1019.9 - 0.0
31/06:30am 4.6 3.3 4.2 97 0.2 CALM 0 6 0 3 1019.8 - 0.0
31/06:24am 4.6 3.3 4.2 97 0.2 CALM 0 6 0 3 1019.6 - 0.0
31/06:00am 5.9 4.9 5.6 98 0.1 CALM 0 0 0 0 1019.7 1019.7 0.0
31/05:45am 5.6 4.5 5.2 97 0.2 CALM 0 0 0 0 1019.7 - 0.0
31/05:30am 5.3 4.2 4.9 97 0.2 CALM 0 0 0 0 1019.4 - 0.0
31/05:17am 4.9 3.7 4.5 97 0.2 CALM 0 0 0 0 1019.4 - 0.0
31/05:00am 5.7 3.5 5.3 97 0.2 W 6 7 3 4 1019.3 1019.3 0.0
31/04:43am 4.9 2.5 4.2 95 0.3 WNW 6 9 3 5 1019.2 - 0.0
31/04:30am 5.4 4.2 4.8 96 0.3 CALM 0 0 0 0 1019.1 - 0.0
31/04:00am 5.1 3.5 4.4 95 0.3 N 2 6 1 3 1019.0 1019.0 0.0
31/03:30am 5.9 4.1 5.3 96 0.3 N 4 9 2 5 1019.0 - 0.0
31/03:00am 5.6 3.3 4.9 95 0.3 N 6 7 3 4 1019.1 1019.1 0.0
31/02:30am 6.1 4.3 5.4 95 0.3 NW 4 7 2 4 1019.3 - 0.0
31/02:00am 6.0 3.8 5.3 95 0.3 W 6 9 3 5 1019.6 1019.6 0.0
31/01:30am 6.0 4.9 5.0 93 0.4 CALM 0 0 0 0 1019.8 - 0.0
31/01:00am 7.0 6.1 5.9 93 0.5 CALM 0 0 0 0 1019.9 1019.9 0.0
31/12:30am 7.7 5.6 6.5 92 0.5 W 7 9 4 5 1020.0 - 0.0
31/12:00am 7.1 4.4 5.7 91 0.6 W 9 11 5 6 1020.0 1020.0 0.0
 
Date/Time
EST
Temp
°C
App
Temp
°C
Dew
Point
Rel
Hum
%
Delta-T
°C
Wind Press
QNH
hPa
Press
MSL
hPa
Rain
since 9 am
mm
Dir
 
Spd
km/h
Gust
km/h
Spd
kts
Gust
kts
30/11:30pm 8.8 7.1 7.7 93 0.5 N 6 6 3 3 1020.1 - 0.0
30/11:00pm 8.7 7.0 7.6 93 0.5 N 6 6 3 3 1020.2 1020.2 0.0
30/10:30pm 8.7 6.8 6.7 87 0.9 N 6 6 3 3 1020.1 - 0.0
30/10:00pm 11.2 8.8 7.1 76 1.9 N 9 11 5 6 1020.1 1020.1 0.0
30/09:30pm 10.8 9.0 8.0 83 1.4 N 7 7 4 4 1020.3 - 0.0
30/09:00pm 11.5 9.4 8.2 80 1.6 N 9 11 5 6 1020.2 1020.2 0.0
30/08:30pm 10.7 8.6 6.6 76 1.9 N 7 13 4 7 1020.1 - 0.0
30/08:00pm 9.6 7.4 7.9 89 0.8 N 9 11 5 6 1020.2 1020.2 0.0
30/07:30pm 9.8 9.3 7.9 88 0.9 CALM 0 7 0 4 1020.1 - 0.0
30/07:00pm 10.8 9.2 8.7 87 1.0 NNW 7 9 4 5 1020.0 1020.0 0.0
30/06:30pm 11.8 10.3 8.3 79 1.7 NNW 6 7 3 4 1019.9 - 0.0
30/06:00pm 12.8 11.3 8.5 75 2.1 N 6 7 3 4 1019.7 1019.7 0.0
30/05:30pm 15.2 13.7 10.6 74 2.4 N 9 13 5 7 1019.6 - 0.0
30/05:00pm 17.2 14.7 8.1 55 4.6 NE 11 13 6 7 1019.5 1019.5 0.0
30/04:30pm 18.9 16.0 8.0 49 5.6 NNE 13 15 7 8 1019.3 - 0.0

Other Formats:

Comma delimited format used in spreadsheet applications
http://www.bom.gov.au/fwo/IDN60801/IDN60801.94596.axf

JavaScript Object Notation format (JSON) in row-major order
http://www.bom.gov.au/fwo/IDN60801/IDN60801.94596.json